sensor_id;sensor_type;location;lat;lon;timestamp;P1;durP1;ratioP1;P2;durP2;ratioP2
8228;SDS011;4155;50.118;8.714;2022-09-09T00:01:46;5.27;;;1.70;;
8228;SDS011;4155;50.118;8.714;2022-09-09T00:04:21;4.13;;;1.60;;
8228;SDS011;4155;50.118;8.714;2022-09-09T00:06:56;3.60;;;2.10;;
8228;SDS011;4155;50.118;8.714;2022-09-09T00:09:31;4.87;;;1.57;;
8228;SDS011;4155;50.118;8.714;2022-09-09T00:12:08;4.00;;;2.13;;
8228;SDS011;4155;50.118;8.714;2022-09-09T00:14:41;5.40;;;1.63;;
8228;SDS011;4155;50.118;8.714;2022-09-09T00:17:17;8.03;;;1.70;;
8228;SDS011;4155;50.118;8.714;2022-09-09T00:19:53;5.77;;;1.90;;
8228;SDS011;4155;50.118;8.714;2022-09-09T00:22:24;7.73;;;1.60;;
8228;SDS011;4155;50.118;8.714;2022-09-09T00:24:55;2.70;;;1.50;;
8228;SDS011;4155;50.118;8.714;2022-09-09T00:27:27;3.77;;;1.60;;
8228;SDS011;4155;50.118;8.714;2022-09-09T00:30:00;2.90;;;1.60;;
8228;SDS011;4155;50.118;8.714;2022-09-09T00:32:41;7.87;;;1.97;;
8228;SDS011;4155;50.118;8.714;2022-09-09T00:35:14;2.57;;;1.90;;
8228;SDS011;4155;50.118;8.714;2022-09-09T00:37:46;4.00;;;1.87;;
8228;SDS011;4155;50.118;8.714;2022-09-09T00:40:20;2.77;;;1.80;;
8228;SDS011;4155;50.118;8.714;2022-09-09T00:42:54;7.20;;;1.67;;
8228;SDS011;4155;50.118;8.714;2022-09-09T00:45:41;3.00;;;1.53;;
8228;SDS011;4155;50.118;8.714;2022-09-09T00:48:26;12.60;;;1.67;;
8228;SDS011;4155;50.118;8.714;2022-09-09T00:51:03;3.57;;;1.70;;
8228;SDS011;4155;50.118;8.714;2022-09-09T00:53:38;5.23;;;1.70;;
8228;SDS011;4155;50.118;8.714;2022-09-09T00:56:22;3.10;;;1.80;;
8228;SDS011;4155;50.118;8.714;2022-09-09T00:58:58;4.10;;;2.30;;
8228;SDS011;4155;50.118;8.714;2022-09-09T01:01:33;7.10;;;2.23;;
8228;SDS011;4155;50.118;8.714;2022-09-09T01:04:03;2.30;;;1.73;;
8228;SDS011;4155;50.118;8.714;2022-09-09T01:06:37;3.70;;;1.80;;
8228;SDS011;4155;50.118;8.714;2022-09-09T01:09:08;7.43;;;2.63;;
8228;SDS011;4155;50.118;8.714;2022-09-09T01:11:45;4.27;;;1.67;;
8228;SDS011;4155;50.118;8.714;2022-09-09T01:14:24;5.00;;;1.80;;
8228;SDS011;4155;50.118;8.714;2022-09-09T01:17:00;5.50;;;2.30;;
8228;SDS011;4155;50.118;8.714;2022-09-09T01:19:35;2.20;;;2.00;;
8228;SDS011;4155;50.118;8.714;2022-09-09T01:22:13;8.37;;;2.33;;
8228;SDS011;4155;50.118;8.714;2022-09-09T01:24:53;3.43;;;2.10;;
8228;SDS011;4155;50.118;8.714;2022-09-09T01:27:38;2.30;;;2.07;;
8228;SDS011;4155;50.118;8.714;2022-09-09T01:30:09;6.27;;;2.37;;
8228;SDS011;4155;50.118;8.714;2022-09-09T01:32:40;1.60;;;1.50;;
8228;SDS011;4155;50.118;8.714;2022-09-09T01:35:10;5.80;;;2.07;;
8228;SDS011;4155;50.118;8.714;2022-09-09T01:37:42;5.53;;;1.87;;
8228;SDS011;4155;50.118;8.714;2022-09-09T01:40:10;4.43;;;1.97;;
8228;SDS011;4155;50.118;8.714;2022-09-09T01:42:39;7.50;;;1.90;;
8228;SDS011;4155;50.118;8.714;2022-09-09T01:45:07;4.07;;;1.70;;
8228;SDS011;4155;50.118;8.714;2022-09-09T01:47:36;5.50;;;1.63;;
8228;SDS011;4155;50.118;8.714;2022-09-09T01:50:04;3.77;;;1.87;;
8228;SDS011;4155;50.118;8.714;2022-09-09T01:52:32;4.73;;;1.90;;
8228;SDS011;4155;50.118;8.714;2022-09-09T01:55:03;4.13;;;1.70;;
8228;SDS011;4155;50.118;8.714;2022-09-09T01:57:33;4.70;;;1.80;;
8228;SDS011;4155;50.118;8.714;2022-09-09T02:00:13;2.33;;;1.70;;
8228;SDS011;4155;50.118;8.714;2022-09-09T02:02:44;4.30;;;1.90;;
8228;SDS011;4155;50.118;8.714;2022-09-09T02:05:26;4.10;;;1.87;;
8228;SDS011;4155;50.118;8.714;2022-09-09T02:07:59;3.57;;;1.60;;
8228;SDS011;4155;50.118;8.714;2022-09-09T02:10:33;6.90;;;2.53;;
8228;SDS011;4155;50.118;8.714;2022-09-09T02:13:10;1.93;;;1.73;;
8228;SDS011;4155;50.118;8.714;2022-09-09T02:15:41;3.83;;;1.90;;
8228;SDS011;4155;50.118;8.714;2022-09-09T02:18:15;3.27;;;2.40;;
8228;SDS011;4155;50.118;8.714;2022-09-09T02:20:49;6.43;;;1.90;;
8228;SDS011;4155;50.118;8.714;2022-09-09T02:23:18;4.57;;;2.00;;
8228;SDS011;4155;50.118;8.714;2022-09-09T02:25:47;4.40;;;1.80;;
8228;SDS011;4155;50.118;8.714;2022-09-09T02:28:19;5.07;;;2.10;;
8228;SDS011;4155;50.118;8.714;2022-09-09T02:30:51;4.73;;;2.03;;
8228;SDS011;4155;50.118;8.714;2022-09-09T02:33:22;8.03;;;1.90;;
8228;SDS011;4155;50.118;8.714;2022-09-09T02:35:53;4.43;;;2.40;;
8228;SDS011;4155;50.118;8.714;2022-09-09T02:38:30;5.80;;;2.03;;
8228;SDS011;4155;50.118;8.714;2022-09-09T02:41:03;3.90;;;2.00;;
8228;SDS011;4155;50.118;8.714;2022-09-09T02:43:34;4.50;;;2.17;;
8228;SDS011;4155;50.118;8.714;2022-09-09T02:46:03;6.03;;;1.90;;
8228;SDS011;4155;50.118;8.714;2022-09-09T02:48:40;4.70;;;2.00;;
8228;SDS011;4155;50.118;8.714;2022-09-09T02:51:18;5.53;;;2.57;;
8228;SDS011;4155;50.118;8.714;2022-09-09T02:53:53;4.50;;;2.20;;
8228;SDS011;4155;50.118;8.714;2022-09-09T02:56:29;5.50;;;2.23;;
8228;SDS011;4155;50.118;8.714;2022-09-09T02:59:03;5.43;;;2.10;;
8228;SDS011;4155;50.118;8.714;2022-09-09T03:01:32;4.47;;;2.20;;
8228;SDS011;4155;50.118;8.714;2022-09-09T03:04:01;4.03;;;2.37;;
8228;SDS011;4155;50.118;8.714;2022-09-09T03:06:31;7.63;;;2.60;;
8228;SDS011;4155;50.118;8.714;2022-09-09T03:08:58;7.10;;;2.50;;
8228;SDS011;4155;50.118;8.714;2022-09-09T03:11:28;6.60;;;2.37;;
8228;SDS011;4155;50.118;8.714;2022-09-09T03:13:56;3.47;;;1.97;;
8228;SDS011;4155;50.118;8.714;2022-09-09T03:16:25;3.80;;;2.53;;
8228;SDS011;4155;50.118;8.714;2022-09-09T03:18:52;6.17;;;2.00;;
8228;SDS011;4155;50.118;8.714;2022-09-09T03:21:20;11.43;;;1.83;;
8228;SDS011;4155;50.118;8.714;2022-09-09T03:23:48;7.83;;;2.27;;
8228;SDS011;4155;50.118;8.714;2022-09-09T03:26:16;7.63;;;2.43;;
8228;SDS011;4155;50.118;8.714;2022-09-09T03:28:43;4.17;;;1.83;;
8228;SDS011;4155;50.118;8.714;2022-09-09T03:31:11;4.20;;;2.40;;
8228;SDS011;4155;50.118;8.714;2022-09-09T03:33:40;4.90;;;2.43;;
8228;SDS011;4155;50.118;8.714;2022-09-09T03:36:08;6.73;;;2.60;;
8228;SDS011;4155;50.118;8.714;2022-09-09T03:38:36;6.87;;;2.23;;
8228;SDS011;4155;50.118;8.714;2022-09-09T03:41:04;5.53;;;1.80;;
8228;SDS011;4155;50.118;8.714;2022-09-09T03:43:34;16.50;;;2.00;;
8228;SDS011;4155;50.118;8.714;2022-09-09T03:46:02;3.10;;;2.23;;
8228;SDS011;4155;50.118;8.714;2022-09-09T03:48:30;3.60;;;2.30;;
8228;SDS011;4155;50.118;8.714;2022-09-09T03:50:59;7.80;;;2.60;;
8228;SDS011;4155;50.118;8.714;2022-09-09T03:53:28;4.07;;;2.53;;
8228;SDS011;4155;50.118;8.714;2022-09-09T03:55:57;13.80;;;2.40;;
8228;SDS011;4155;50.118;8.714;2022-09-09T03:58:26;5.63;;;1.90;;
8228;SDS011;4155;50.118;8.714;2022-09-09T04:00:55;4.73;;;2.03;;
8228;SDS011;4155;50.118;8.714;2022-09-09T04:03:24;9.37;;;2.40;;
8228;SDS011;4155;50.118;8.714;2022-09-09T04:05:54;3.13;;;1.90;;
8228;SDS011;4155;50.118;8.714;2022-09-09T04:08:24;6.33;;;2.40;;
8228;SDS011;4155;50.118;8.714;2022-09-09T04:10:52;3.80;;;2.00;;
8228;SDS011;4155;50.118;8.714;2022-09-09T04:13:24;3.03;;;2.00;;
8228;SDS011;4155;50.118;8.714;2022-09-09T04:15:53;4.60;;;2.50;;
8228;SDS011;4155;50.118;8.714;2022-09-09T04:18:22;3.53;;;1.90;;
8228;SDS011;4155;50.118;8.714;2022-09-09T04:20:50;4.83;;;2.20;;
8228;SDS011;4155;50.118;8.714;2022-09-09T04:23:19;6.60;;;2.20;;
8228;SDS011;4155;50.118;8.714;2022-09-09T04:25:49;9.50;;;2.23;;
8228;SDS011;4155;50.118;8.714;2022-09-09T04:28:18;4.63;;;2.50;;
8228;SDS011;4155;50.118;8.714;2022-09-09T04:30:47;7.40;;;2.60;;
8228;SDS011;4155;50.118;8.714;2022-09-09T04:33:15;4.67;;;1.97;;
8228;SDS011;4155;50.118;8.714;2022-09-09T04:35:44;3.97;;;2.17;;
8228;SDS011;4155;50.118;8.714;2022-09-09T04:38:13;8.20;;;2.23;;
8228;SDS011;4155;50.118;8.714;2022-09-09T04:40:41;4.40;;;1.90;;
8228;SDS011;4155;50.118;8.714;2022-09-09T04:43:11;9.70;;;2.20;;
8228;SDS011;4155;50.118;8.714;2022-09-09T04:45:39;6.70;;;2.00;;
8228;SDS011;4155;50.118;8.714;2022-09-09T04:48:07;7.27;;;2.23;;
8228;SDS011;4155;50.118;8.714;2022-09-09T04:50:35;4.63;;;2.57;;
8228;SDS011;4155;50.118;8.714;2022-09-09T04:53:03;8.40;;;1.97;;
8228;SDS011;4155;50.118;8.714;2022-09-09T04:55:32;6.20;;;1.73;;
8228;SDS011;4155;50.118;8.714;2022-09-09T04:58:03;3.10;;;1.73;;
8228;SDS011;4155;50.118;8.714;2022-09-09T05:00:33;9.03;;;1.97;;
8228;SDS011;4155;50.118;8.714;2022-09-09T05:03:02;7.80;;;1.93;;
8228;SDS011;4155;50.118;8.714;2022-09-09T05:05:31;4.40;;;2.10;;
8228;SDS011;4155;50.118;8.714;2022-09-09T05:08:01;3.00;;;1.80;;
8228;SDS011;4155;50.118;8.714;2022-09-09T05:10:30;5.53;;;2.00;;
8228;SDS011;4155;50.118;8.714;2022-09-09T05:12:58;6.10;;;1.80;;
8228;SDS011;4155;50.118;8.714;2022-09-09T05:15:25;5.10;;;2.60;;
8228;SDS011;4155;50.118;8.714;2022-09-09T05:17:57;5.37;;;1.60;;
8228;SDS011;4155;50.118;8.714;2022-09-09T05:20:26;3.80;;;2.03;;
8228;SDS011;4155;50.118;8.714;2022-09-09T05:22:54;2.90;;;1.70;;
8228;SDS011;4155;50.118;8.714;2022-09-09T05:25:22;3.40;;;1.40;;
8228;SDS011;4155;50.118;8.714;2022-09-09T05:27:52;6.93;;;2.30;;
8228;SDS011;4155;50.118;8.714;2022-09-09T05:30:20;3.70;;;1.53;;
8228;SDS011;4155;50.118;8.714;2022-09-09T05:32:50;4.77;;;1.90;;
8228;SDS011;4155;50.118;8.714;2022-09-09T05:35:19;4.50;;;1.67;;
8228;SDS011;4155;50.118;8.714;2022-09-09T05:37:47;4.47;;;1.90;;
8228;SDS011;4155;50.118;8.714;2022-09-09T05:40:14;4.70;;;1.80;;
8228;SDS011;4155;50.118;8.714;2022-09-09T05:42:42;4.43;;;1.73;;
8228;SDS011;4155;50.118;8.714;2022-09-09T05:45:10;6.03;;;1.80;;
8228;SDS011;4155;50.118;8.714;2022-09-09T05:47:37;6.30;;;2.13;;
8228;SDS011;4155;50.118;8.714;2022-09-09T05:50:05;4.30;;;2.40;;
8228;SDS011;4155;50.118;8.714;2022-09-09T05:52:35;4.23;;;1.87;;
8228;SDS011;4155;50.118;8.714;2022-09-09T05:55:03;3.40;;;1.80;;
8228;SDS011;4155;50.118;8.714;2022-09-09T05:57:31;4.23;;;1.87;;
8228;SDS011;4155;50.118;8.714;2022-09-09T05:59:59;5.43;;;1.73;;
8228;SDS011;4155;50.118;8.714;2022-09-09T06:02:27;5.47;;;1.80;;
8228;SDS011;4155;50.118;8.714;2022-09-09T06:04:55;8.37;;;1.97;;
8228;SDS011;4155;50.118;8.714;2022-09-09T06:07:26;14.60;;;2.23;;
8228;SDS011;4155;50.118;8.714;2022-09-09T06:09:54;5.93;;;1.87;;
8228;SDS011;4155;50.118;8.714;2022-09-09T06:12:22;5.50;;;1.80;;
8228;SDS011;4155;50.118;8.714;2022-09-09T06:14:50;3.40;;;1.60;;
8228;SDS011;4155;50.118;8.714;2022-09-09T06:17:17;5.73;;;1.90;;
8228;SDS011;4155;50.118;8.714;2022-09-09T06:19:45;7.90;;;2.27;;
8228;SDS011;4155;50.118;8.714;2022-09-09T06:22:13;10.83;;;1.77;;
8228;SDS011;4155;50.118;8.714;2022-09-09T06:24:40;4.60;;;1.60;;
8228;SDS011;4155;50.118;8.714;2022-09-09T06:27:09;5.23;;;2.10;;
8228;SDS011;4155;50.118;8.714;2022-09-09T06:29:39;7.70;;;1.30;;
8228;SDS011;4155;50.118;8.714;2022-09-09T06:32:07;4.40;;;2.07;;
8228;SDS011;4155;50.118;8.714;2022-09-09T06:34:35;3.43;;;1.63;;
8228;SDS011;4155;50.118;8.714;2022-09-09T06:37:03;4.63;;;1.67;;
8228;SDS011;4155;50.118;8.714;2022-09-09T06:39:32;3.43;;;1.63;;
8228;SDS011;4155;50.118;8.714;2022-09-09T06:42:00;7.03;;;1.70;;
8228;SDS011;4155;50.118;8.714;2022-09-09T06:44:29;3.53;;;1.63;;
8228;SDS011;4155;50.118;8.714;2022-09-09T06:47:00;3.60;;;1.40;;
8228;SDS011;4155;50.118;8.714;2022-09-09T06:49:28;1.90;;;1.20;;
8228;SDS011;4155;50.118;8.714;2022-09-09T06:51:56;2.63;;;1.60;;
8228;SDS011;4155;50.118;8.714;2022-09-09T06:54:23;4.57;;;1.80;;
8228;SDS011;4155;50.118;8.714;2022-09-09T06:56:51;6.40;;;1.80;;
8228;SDS011;4155;50.118;8.714;2022-09-09T06:59:19;3.20;;;1.63;;
8228;SDS011;4155;50.118;8.714;2022-09-09T07:01:48;15.10;;;2.47;;
8228;SDS011;4155;50.118;8.714;2022-09-09T07:04:21;4.83;;;2.03;;
8228;SDS011;4155;50.118;8.714;2022-09-09T07:06:49;5.90;;;2.23;;
8228;SDS011;4155;50.118;8.714;2022-09-09T07:09:18;3.40;;;2.00;;
8228;SDS011;4155;50.118;8.714;2022-09-09T07:11:46;8.03;;;2.43;;
8228;SDS011;4155;50.118;8.714;2022-09-09T07:14:16;8.30;;;1.77;;
8228;SDS011;4155;50.118;8.714;2022-09-09T07:16:44;7.83;;;2.20;;
8228;SDS011;4155;50.118;8.714;2022-09-09T07:19:14;4.40;;;1.70;;
8228;SDS011;4155;50.118;8.714;2022-09-09T07:21:42;5.43;;;2.20;;
8228;SDS011;4155;50.118;8.714;2022-09-09T07:24:10;7.43;;;2.67;;
8228;SDS011;4155;50.118;8.714;2022-09-09T07:26:39;6.33;;;1.70;;
8228;SDS011;4155;50.118;8.714;2022-09-09T07:29:07;6.47;;;2.13;;
8228;SDS011;4155;50.118;8.714;2022-09-09T07:31:36;4.50;;;1.70;;
8228;SDS011;4155;50.118;8.714;2022-09-09T07:34:06;30.90;;;4.67;;
8228;SDS011;4155;50.118;8.714;2022-09-09T07:36:36;10.70;;;2.17;;
8228;SDS011;4155;50.118;8.714;2022-09-09T07:39:06;8.67;;;3.00;;
8228;SDS011;4155;50.118;8.714;2022-09-09T07:41:36;4.20;;;1.70;;
8228;SDS011;4155;50.118;8.714;2022-09-09T07:44:06;6.93;;;1.90;;
8228;SDS011;4155;50.118;8.714;2022-09-09T07:46:35;8.33;;;2.20;;
8228;SDS011;4155;50.118;8.714;2022-09-09T07:49:05;7.37;;;2.43;;
8228;SDS011;4155;50.118;8.714;2022-09-09T07:51:34;6.20;;;2.20;;
8228;SDS011;4155;50.118;8.714;2022-09-09T07:54:05;5.77;;;1.90;;
8228;SDS011;4155;50.118;8.714;2022-09-09T07:56:35;3.40;;;1.90;;
8228;SDS011;4155;50.118;8.714;2022-09-09T07:59:06;6.90;;;2.30;;
8228;SDS011;4155;50.118;8.714;2022-09-09T08:01:35;7.30;;;2.20;;
8228;SDS011;4155;50.118;8.714;2022-09-09T08:04:06;8.43;;;2.53;;
8228;SDS011;4155;50.118;8.714;2022-09-09T08:06:37;4.00;;;1.87;;
8228;SDS011;4155;50.118;8.714;2022-09-09T08:09:06;7.37;;;1.80;;
8228;SDS011;4155;50.118;8.714;2022-09-09T08:11:35;4.70;;;2.40;;
8228;SDS011;4155;50.118;8.714;2022-09-09T08:14:04;4.67;;;2.10;;
8228;SDS011;4155;50.118;8.714;2022-09-09T08:16:34;11.13;;;2.00;;
8228;SDS011;4155;50.118;8.714;2022-09-09T08:19:03;5.03;;;2.13;;
8228;SDS011;4155;50.118;8.714;2022-09-09T08:21:33;4.90;;;1.70;;
8228;SDS011;4155;50.118;8.714;2022-09-09T08:24:06;3.97;;;1.60;;
8228;SDS011;4155;50.118;8.714;2022-09-09T08:26:34;3.47;;;1.80;;
8228;SDS011;4155;50.118;8.714;2022-09-09T08:29:04;6.80;;;2.00;;
8228;SDS011;4155;50.118;8.714;2022-09-09T08:31:34;10.93;;;2.40;;
8228;SDS011;4155;50.118;8.714;2022-09-09T08:34:03;4.60;;;1.60;;
8228;SDS011;4155;50.118;8.714;2022-09-09T08:36:33;3.17;;;1.90;;
8228;SDS011;4155;50.118;8.714;2022-09-09T08:39:02;6.67;;;2.00;;
8228;SDS011;4155;50.118;8.714;2022-09-09T08:41:49;8.30;;;2.10;;
8228;SDS011;4155;50.118;8.714;2022-09-09T08:44:30;2.80;;;1.70;;
8228;SDS011;4155;50.118;8.714;2022-09-09T08:47:14;16.23;;;6.63;;
8228;SDS011;4155;50.118;8.714;2022-09-09T08:50:02;8.77;;;2.17;;
8228;SDS011;4155;50.118;8.714;2022-09-09T08:52:39;4.83;;;1.83;;
8228;SDS011;4155;50.118;8.714;2022-09-09T08:55:20;7.90;;;2.43;;
8228;SDS011;4155;50.118;8.714;2022-09-09T08:57:55;6.43;;;2.10;;
8228;SDS011;4155;50.118;8.714;2022-09-09T09:00:28;4.93;;;1.77;;
8228;SDS011;4155;50.118;8.714;2022-09-09T09:03:04;4.40;;;1.93;;
8228;SDS011;4155;50.118;8.714;2022-09-09T09:05:37;8.83;;;1.70;;
8228;SDS011;4155;50.118;8.714;2022-09-09T09:08:14;5.00;;;1.70;;
8228;SDS011;4155;50.118;8.714;2022-09-09T09:10:51;11.23;;;2.30;;
8228;SDS011;4155;50.118;8.714;2022-09-09T09:13:26;11.93;;;2.30;;
8228;SDS011;4155;50.118;8.714;2022-09-09T09:16:11;3.53;;;1.50;;
8228;SDS011;4155;50.118;8.714;2022-09-09T09:18:45;3.83;;;1.83;;
8228;SDS011;4155;50.118;8.714;2022-09-09T09:21:14;4.37;;;1.90;;
8228;SDS011;4155;50.118;8.714;2022-09-09T09:23:48;5.93;;;1.87;;
8228;SDS011;4155;50.118;8.714;2022-09-09T09:26:23;3.53;;;1.87;;
8228;SDS011;4155;50.118;8.714;2022-09-09T09:28:54;11.50;;;2.07;;
8228;SDS011;4155;50.118;8.714;2022-09-09T09:31:23;4.27;;;1.70;;
8228;SDS011;4155;50.118;8.714;2022-09-09T09:33:53;7.70;;;3.00;;
8228;SDS011;4155;50.118;8.714;2022-09-09T09:36:25;8.07;;;2.47;;
8228;SDS011;4155;50.118;8.714;2022-09-09T09:39:02;7.97;;;2.67;;
8228;SDS011;4155;50.118;8.714;2022-09-09T09:41:51;13.80;;;4.63;;
8228;SDS011;4155;50.118;8.714;2022-09-09T09:44:25;26.10;;;7.97;;
8228;SDS011;4155;50.118;8.714;2022-09-09T09:47:05;76.77;;;23.70;;
8228;SDS011;4155;50.118;8.714;2022-09-09T09:49:33;48.50;;;14.23;;
8228;SDS011;4155;50.118;8.714;2022-09-09T09:52:01;25.03;;;6.77;;
8228;SDS011;4155;50.118;8.714;2022-09-09T09:54:31;8.43;;;2.70;;
8228;SDS011;4155;50.118;8.714;2022-09-09T09:57:08;6.17;;;2.93;;
8228;SDS011;4155;50.118;8.714;2022-09-09T09:59:39;5.33;;;2.00;;
8228;SDS011;4155;50.118;8.714;2022-09-09T10:02:17;6.20;;;2.40;;
8228;SDS011;4155;50.118;8.714;2022-09-09T10:04:47;12.57;;;2.60;;
8228;SDS011;4155;50.118;8.714;2022-09-09T10:07:17;8.30;;;2.57;;
8228;SDS011;4155;50.118;8.714;2022-09-09T10:09:46;3.63;;;1.83;;
8228;SDS011;4155;50.118;8.714;2022-09-09T10:12:22;4.90;;;1.93;;
8228;SDS011;4155;50.118;8.714;2022-09-09T10:15:00;7.10;;;2.63;;
8228;SDS011;4155;50.118;8.714;2022-09-09T10:17:34;7.43;;;1.97;;
8228;SDS011;4155;50.118;8.714;2022-09-09T10:20:15;9.03;;;2.03;;
8228;SDS011;4155;50.118;8.714;2022-09-09T10:22:52;5.87;;;2.40;;
8228;SDS011;4155;50.118;8.714;2022-09-09T10:25:32;4.83;;;2.20;;
8228;SDS011;4155;50.118;8.714;2022-09-09T10:31:17;5.67;;;2.40;;
8228;SDS011;4155;50.118;8.714;2022-09-09T10:33:51;4.00;;;1.90;;
8228;SDS011;4155;50.118;8.714;2022-09-09T10:36:30;7.60;;;2.57;;
8228;SDS011;4155;50.118;8.714;2022-09-09T10:38:58;8.47;;;2.50;;
8228;SDS011;4155;50.118;8.714;2022-09-09T10:41:36;5.53;;;2.50;;
8228;SDS011;4155;50.118;8.714;2022-09-09T10:44:15;4.33;;;1.70;;
8228;SDS011;4155;50.118;8.714;2022-09-09T10:50:00;5.77;;;1.90;;
8228;SDS011;4155;50.118;8.714;2022-09-09T10:52:40;10.33;;;2.60;;
8228;SDS011;4155;50.118;8.714;2022-09-09T10:55:23;7.50;;;1.53;;
8228;SDS011;4155;50.118;8.714;2022-09-09T10:57:55;6.03;;;2.03;;
8228;SDS011;4155;50.118;8.714;2022-09-09T11:00:27;10.60;;;2.33;;
8228;SDS011;4155;50.118;8.714;2022-09-09T11:03:06;7.60;;;1.93;;
8228;SDS011;4155;50.118;8.714;2022-09-09T11:05:41;6.40;;;2.40;;
8228;SDS011;4155;50.118;8.714;2022-09-09T11:08:12;7.63;;;2.40;;
8228;SDS011;4155;50.118;8.714;2022-09-09T11:10:44;9.70;;;2.13;;
8228;SDS011;4155;50.118;8.714;2022-09-09T11:13:19;10.53;;;2.53;;
8228;SDS011;4155;50.118;8.714;2022-09-09T11:15:53;10.13;;;2.20;;
8228;SDS011;4155;50.118;8.714;2022-09-09T11:18:27;4.47;;;2.03;;
8228;SDS011;4155;50.118;8.714;2022-09-09T11:20:59;6.03;;;2.07;;
8228;SDS011;4155;50.118;8.714;2022-09-09T11:23:33;7.57;;;2.23;;
8228;SDS011;4155;50.118;8.714;2022-09-09T11:26:07;10.87;;;3.03;;
8228;SDS011;4155;50.118;8.714;2022-09-09T11:28:46;3.10;;;1.90;;
8228;SDS011;4155;50.118;8.714;2022-09-09T11:31:34;3.93;;;1.60;;
8228;SDS011;4155;50.118;8.714;2022-09-09T11:37:14;6.17;;;2.30;;
8228;SDS011;4155;50.118;8.714;2022-09-09T11:39:55;6.20;;;2.20;;
8228;SDS011;4155;50.118;8.714;2022-09-09T11:42:36;8.30;;;2.40;;
8228;SDS011;4155;50.118;8.714;2022-09-09T11:45:10;10.20;;;3.93;;
8228;SDS011;4155;50.118;8.714;2022-09-09T11:47:51;5.70;;;2.30;;
8228;SDS011;4155;50.118;8.714;2022-09-09T11:50:35;5.13;;;2.20;;
8228;SDS011;4155;50.118;8.714;2022-09-09T11:53:04;3.77;;;2.03;;
8228;SDS011;4155;50.118;8.714;2022-09-09T11:56:00;6.80;;;2.00;;
8228;SDS011;4155;50.118;8.714;2022-09-09T11:58:32;7.97;;;2.10;;
8228;SDS011;4155;50.118;8.714;2022-09-09T12:01:15;3.40;;;1.53;;
8228;SDS011;4155;50.118;8.714;2022-09-09T12:03:55;7.27;;;1.97;;
8228;SDS011;4155;50.118;8.714;2022-09-09T12:06:42;2.47;;;1.83;;
8228;SDS011;4155;50.118;8.714;2022-09-09T12:09:17;5.20;;;1.80;;
8228;SDS011;4155;50.118;8.714;2022-09-09T12:11:50;5.07;;;1.70;;
8228;SDS011;4155;50.118;8.714;2022-09-09T12:14:21;6.10;;;1.50;;
8228;SDS011;4155;50.118;8.714;2022-09-09T12:17:09;3.97;;;1.50;;
8228;SDS011;4155;50.118;8.714;2022-09-09T12:19:37;4.30;;;1.90;;
8228;SDS011;4155;50.118;8.714;2022-09-09T12:22:07;3.27;;;1.50;;
8228;SDS011;4155;50.118;8.714;2022-09-09T12:24:46;2.97;;;1.50;;
8228;SDS011;4155;50.118;8.714;2022-09-09T12:27:20;3.20;;;1.30;;
8228;SDS011;4155;50.118;8.714;2022-09-09T12:29:54;4.17;;;2.37;;
8228;SDS011;4155;50.118;8.714;2022-09-09T12:32:27;7.70;;;1.57;;
8228;SDS011;4155;50.118;8.714;2022-09-09T12:34:57;8.70;;;1.67;;
8228;SDS011;4155;50.118;8.714;2022-09-09T12:37:32;8.30;;;2.33;;
8228;SDS011;4155;50.118;8.714;2022-09-09T12:40:02;6.90;;;1.80;;
8228;SDS011;4155;50.118;8.714;2022-09-09T12:42:31;6.30;;;1.47;;
8228;SDS011;4155;50.118;8.714;2022-09-09T12:45:15;4.80;;;1.60;;
8228;SDS011;4155;50.118;8.714;2022-09-09T12:47:45;10.80;;;2.50;;
8228;SDS011;4155;50.118;8.714;2022-09-09T12:50:17;8.13;;;2.00;;
8228;SDS011;4155;50.118;8.714;2022-09-09T12:52:50;5.37;;;2.30;;
8228;SDS011;4155;50.118;8.714;2022-09-09T12:55:20;21.43;;;3.57;;
8228;SDS011;4155;50.118;8.714;2022-09-09T12:57:51;16.67;;;3.40;;
8228;SDS011;4155;50.118;8.714;2022-09-09T13:00:20;10.00;;;2.63;;
8228;SDS011;4155;50.118;8.714;2022-09-09T13:02:50;4.70;;;2.07;;
8228;SDS011;4155;50.118;8.714;2022-09-09T13:05:21;4.40;;;1.70;;
8228;SDS011;4155;50.118;8.714;2022-09-09T13:07:59;4.83;;;1.50;;
8228;SDS011;4155;50.118;8.714;2022-09-09T13:10:29;9.30;;;1.77;;
8228;SDS011;4155;50.118;8.714;2022-09-09T13:13:18;4.00;;;1.40;;
8228;SDS011;4155;50.118;8.714;2022-09-09T13:15:49;4.37;;;2.03;;
8228;SDS011;4155;50.118;8.714;2022-09-09T13:18:19;5.97;;;1.53;;
8228;SDS011;4155;50.118;8.714;2022-09-09T13:20:50;5.07;;;1.80;;
8228;SDS011;4155;50.118;8.714;2022-09-09T13:23:20;3.63;;;1.73;;
8228;SDS011;4155;50.118;8.714;2022-09-09T13:25:55;6.73;;;2.00;;
8228;SDS011;4155;50.118;8.714;2022-09-09T13:28:25;3.97;;;2.00;;
8228;SDS011;4155;50.118;8.714;2022-09-09T13:30:59;6.40;;;1.70;;
8228;SDS011;4155;50.118;8.714;2022-09-09T13:33:30;5.10;;;1.97;;
8228;SDS011;4155;50.118;8.714;2022-09-09T13:36:00;9.43;;;2.13;;
8228;SDS011;4155;50.118;8.714;2022-09-09T13:38:33;5.37;;;1.90;;
8228;SDS011;4155;50.118;8.714;2022-09-09T13:41:03;3.83;;;2.63;;
8228;SDS011;4155;50.118;8.714;2022-09-09T13:43:34;3.17;;;1.90;;
8228;SDS011;4155;50.118;8.714;2022-09-09T13:46:05;2.80;;;1.50;;
8228;SDS011;4155;50.118;8.714;2022-09-09T13:48:55;2.40;;;1.50;;
8228;SDS011;4155;50.118;8.714;2022-09-09T13:51:28;3.87;;;1.20;;
8228;SDS011;4155;50.118;8.714;2022-09-09T13:54:02;1.47;;;1.10;;
8228;SDS011;4155;50.118;8.714;2022-09-09T13:56:29;1.83;;;1.10;;
8228;SDS011;4155;50.118;8.714;2022-09-09T13:58:58;3.17;;;1.40;;
8228;SDS011;4155;50.118;8.714;2022-09-09T14:01:25;2.70;;;1.00;;
8228;SDS011;4155;50.118;8.714;2022-09-09T14:03:55;2.70;;;1.17;;
8228;SDS011;4155;50.118;8.714;2022-09-09T14:06:22;3.50;;;1.10;;
8228;SDS011;4155;50.118;8.714;2022-09-09T14:08:50;2.03;;;1.20;;
8228;SDS011;4155;50.118;8.714;2022-09-09T14:11:20;2.20;;;1.33;;
8228;SDS011;4155;50.118;8.714;2022-09-09T14:13:48;1.60;;;1.50;;
8228;SDS011;4155;50.118;8.714;2022-09-09T14:16:16;4.23;;;1.23;;
8228;SDS011;4155;50.118;8.714;2022-09-09T14:18:45;2.33;;;1.30;;
8228;SDS011;4155;50.118;8.714;2022-09-09T14:21:13;2.10;;;1.30;;
8228;SDS011;4155;50.118;8.714;2022-09-09T14:23:41;1.50;;;1.27;;
8228;SDS011;4155;50.118;8.714;2022-09-09T14:26:09;3.37;;;1.17;;
8228;SDS011;4155;50.118;8.714;2022-09-09T14:28:38;6.40;;;1.30;;
8228;SDS011;4155;50.118;8.714;2022-09-09T14:31:21;4.73;;;1.10;;
8228;SDS011;4155;50.118;8.714;2022-09-09T14:33:49;3.50;;;1.30;;
8228;SDS011;4155;50.118;8.714;2022-09-09T14:36:20;2.97;;;1.07;;
8228;SDS011;4155;50.118;8.714;2022-09-09T14:38:48;1.67;;;1.00;;
8228;SDS011;4155;50.118;8.714;2022-09-09T14:41:17;1.57;;;1.30;;
8228;SDS011;4155;50.118;8.714;2022-09-09T14:43:48;2.37;;;1.20;;
8228;SDS011;4155;50.118;8.714;2022-09-09T14:46:16;4.70;;;1.13;;
8228;SDS011;4155;50.118;8.714;2022-09-09T14:48:45;1.70;;;1.20;;
8228;SDS011;4155;50.118;8.714;2022-09-09T14:51:15;3.10;;;1.57;;
8228;SDS011;4155;50.118;8.714;2022-09-09T14:53:44;1.73;;;1.20;;
8228;SDS011;4155;50.118;8.714;2022-09-09T14:56:13;3.73;;;1.60;;
8228;SDS011;4155;50.118;8.714;2022-09-09T14:58:42;2.80;;;1.73;;
8228;SDS011;4155;50.118;8.714;2022-09-09T15:01:13;4.23;;;1.33;;
8228;SDS011;4155;50.118;8.714;2022-09-09T15:03:42;3.13;;;1.37;;
8228;SDS011;4155;50.118;8.714;2022-09-09T15:06:16;3.23;;;1.27;;
8228;SDS011;4155;50.118;8.714;2022-09-09T15:08:44;4.13;;;2.50;;
8228;SDS011;4155;50.118;8.714;2022-09-09T15:11:15;4.70;;;2.00;;
8228;SDS011;4155;50.118;8.714;2022-09-09T15:13:43;3.60;;;1.40;;
8228;SDS011;4155;50.118;8.714;2022-09-09T15:16:13;2.53;;;1.30;;
8228;SDS011;4155;50.118;8.714;2022-09-09T15:18:43;4.73;;;1.63;;
8228;SDS011;4155;50.118;8.714;2022-09-09T15:21:12;3.77;;;1.93;;
8228;SDS011;4155;50.118;8.714;2022-09-09T15:23:41;3.00;;;1.40;;
8228;SDS011;4155;50.118;8.714;2022-09-09T15:26:10;3.67;;;1.70;;
8228;SDS011;4155;50.118;8.714;2022-09-09T15:28:38;7.93;;;1.30;;
8228;SDS011;4155;50.118;8.714;2022-09-09T15:31:06;1.83;;;1.23;;
8228;SDS011;4155;50.118;8.714;2022-09-09T15:33:38;3.80;;;1.50;;
8228;SDS011;4155;50.118;8.714;2022-09-09T15:36:12;1.30;;;1.20;;
8228;SDS011;4155;50.118;8.714;2022-09-09T15:38:41;1.87;;;1.23;;
8228;SDS011;4155;50.118;8.714;2022-09-09T15:41:10;2.17;;;1.30;;
8228;SDS011;4155;50.118;8.714;2022-09-09T15:43:38;1.80;;;1.00;;
8228;SDS011;4155;50.118;8.714;2022-09-09T15:46:16;3.57;;;1.10;;
8228;SDS011;4155;50.118;8.714;2022-09-09T15:48:54;2.93;;;1.30;;
8228;SDS011;4155;50.118;8.714;2022-09-09T15:51:23;2.93;;;1.10;;
8228;SDS011;4155;50.118;8.714;2022-09-09T15:54:10;2.50;;;1.43;;